Time;durP1;ratioP1;P1;durP2;ratioP2;P2;SDS_P1;SDS_P2;PMS_P1;PMS_P2;Temp;Humidity;BMP_temperature;BMP_pressure;BME280_temperature;BME280_humidity;BME280_pressure;Samples;Min_cycle;Max_cycle;Signal;HPM_P1;HPM_P2
2022/09/19 00:01:14;;;;;;;0.20;0.20;;;;;;;19.55;41.13;101021.06;1656890;87;21007;-57
2022/09/19 00:03:43;;;;;;;0.20;0.20;;;;;;;19.57;41.31;101027.58;1609616;89;21053;-53
2022/09/19 00:06:12;;;;;;;0.90;0.23;;;;;;;19.57;41.54;101031.53;1594653;90;21079;-53
2022/09/19 00:08:40;;;;;;;0.55;0.40;;;;;;;19.56;41.79;101025.88;1594741;90;21091;-54
2022/09/19 00:11:08;;;;;;;0.30;0.30;;;;;;;19.57;41.86;101032.85;1594238;90;21072;-54
2022/09/19 00:13:41;;;;;;;0.95;0.45;;;;;;;19.57;41.91;101031.53;1594296;90;21107;-52
2022/09/19 00:16:07;;;;;;;0.33;0.30;;;;;;;19.57;41.76;101032.85;1594405;90;21072;-54
2022/09/19 00:18:36;;;;;;;0.40;0.40;;;;;;;19.56;41.69;101031.16;1594257;89;21531;-59
2022/09/19 00:21:05;;;;;;;3.37;0.70;;;;;;;19.54;41.53;101035.67;1594448;90;21540;-56
2022/09/19 00:26:17;;;;;;;1.65;0.90;;;;;;;19.50;41.34;101048.16;1586371;90;21080;-53
2022/09/19 00:28:45;;;;;;;1.42;0.62;;;;;;;19.46;41.34;101050.13;1594210;90;21055;-52
2022/09/19 00:31:17;;;;;;;1.25;1.15;;;;;;;19.44;41.33;101054.63;1594338;90;21075;-51
2022/09/19 00:33:46;;;;;;;0.65;0.65;;;;;;;19.41;41.24;101058.73;1594193;90;21616;-51
2022/09/19 00:36:13;;;;;;;0.82;0.60;;;;;;;19.37;41.00;101063.80;1594714;90;21024;-53
2022/09/19 00:38:41;;;;;;;0.40;0.40;;;;;;;19.34;40.87;101067.07;1594397;90;21064;-58
2022/09/19 00:41:08;;;;;;;0.60;0.50;;;;;;;19.29;40.61;101064.64;1568414;91;21078;-53
2022/09/19 00:43:51;;;;;;;1.17;0.60;;;;;;;19.26;40.51;101062.17;1568178;91;21074;-50
2022/09/19 00:46:20;;;;;;;1.85;0.50;;;;;;;19.22;40.44;101065.91;1594433;89;22047;-53
2022/09/19 00:48:55;;;;;;;1.75;0.40;;;;;;;19.19;40.34;101064.73;1594206;90;21072;-53
2022/09/19 00:51:38;;;;;;;2.85;0.47;;;;;;;19.17;40.29;101058.69;1589086;90;21075;-52
2022/09/19 00:54:11;;;;;;;0.30;0.30;;;;;;;19.16;40.29;101060.95;1543212;93;21060;-55
2022/09/19 00:56:37;;;;;;;2.33;0.65;;;;;;;19.11;40.38;101057.69;1540732;93;21064;-52
2022/09/19 00:59:03;;;;;;;1.80;0.50;;;;;;;19.10;40.46;101052.50;1542875;93;21136;-51
2022/09/19 01:01:31;;;;;;;1.15;0.60;;;;;;;19.09;40.46;101056.92;1584104;90;21098;-51
2022/09/19 01:03:57;;;;;;;0.62;0.40;;;;;;;19.07;40.42;101058.78;1610793;89;21532;-51
2022/09/19 01:06:50;;;;;;;2.27;0.60;;;;;;;19.04;40.48;101053.66;1621297;88;21083;-58
2022/09/19 01:09:47;;;;;;;0.82;0.50;;;;;;;19.01;40.57;101052.97;1617174;88;21044;-53
2022/09/19 01:12:46;;;;;;;0.60;0.42;;;;;;;18.98;40.56;101046.06;1621540;88;21020;-55
2022/09/19 01:15:41;;;;;;;2.02;0.85;;;;;;;18.95;40.59;101050.19;1618274;88;21060;-51
2022/09/19 01:18:08;;;;;;;2.25;1.65;;;;;;;18.91;40.52;101055.23;1567451;91;21085;-57
2022/09/19 01:24:19;;;;;;;0.60;0.47;;;;;;;18.83;40.56;101057.41;1558777;91;21124;-53
2022/09/19 01:27:18;;;;;;;0.50;0.40;;;;;;;18.79;40.34;101058.50;1516244;94;21082;-53
2022/09/19 01:30:06;;;;;;;2.33;0.40;;;;;;;18.76;40.05;101059.95;1553117;91;21545;-53
2022/09/19 01:32:51;;;;;;;1.42;0.78;;;;;;;18.72;39.96;101063.69;1554426;92;21590;-53
2022/09/19 01:35:15;;;;;;;0.60;0.40;;;;;;;18.68;39.93;101070.90;1550543;92;21466;-52
2022/09/19 01:37:54;;;;;;;1.75;0.30;;;;;;;18.66;39.99;101073.22;1553144;92;21077;-59
2022/09/19 01:40:21;;;;;;;1.17;0.40;;;;;;;18.63;40.05;101070.27;1550291;91;21122;-53
2022/09/19 01:45:32;;;;;;;0.68;0.50;;;;;;;18.60;40.02;101070.89;1477642;96;21157;-55
2022/09/19 01:48:24;;;;;;;1.40;0.40;;;;;;;18.58;40.05;101070.11;1487295;94;21779;-53
2022/09/19 01:51:17;;;;;;;1.15;0.40;;;;;;;18.57;39.95;101072.34;1497519;94;21139;-54
2022/09/19 01:54:16;;;;;;;1.77;0.57;;;;;;;18.55;39.89;101076.84;1461117;97;21096;-52
2022/09/19 01:57:15;;;;;;;;;;;;;;;18.52;39.83;101070.42;1474076;97;21119;-53
2022/09/19 02:00:00;;;;;;;1.02;0.68;;;;;;;18.48;39.76;101070.19;1438663;99;20462;-58
2022/09/19 02:02:48;;;;;;;0.53;0.50;;;;;;;18.45;39.92;101076.91;1452127;99;21138;-54
2022/09/19 02:05:44;;;;;;;0.42;0.42;;;;;;;18.42;39.98;101077.04;1455410;99;21087;-55
2022/09/19 02:08:29;;;;;;;2.58;0.60;;;;;;;18.40;39.97;101080.21;1454943;98;21099;-57
2022/09/19 02:11:16;;;;;;;0.95;0.60;;;;;;;18.37;39.91;101084.30;1484738;96;21056;-54
2022/09/19 02:13:52;;;;;;;1.42;0.50;;;;;;;18.35;39.90;101088.79;1484344;96;21173;-54
2022/09/19 02:16:33;;;;;;;0.47;0.47;;;;;;;18.32;40.03;101085.00;1487299;96;21700;-55
2022/09/19 02:19:06;;;;;;;1.67;0.50;;;;;;;18.28;40.03;101082.95;1483573;96;21109;-61
2022/09/19 02:21:39;;;;;;;1.60;0.30;;;;;;;18.27;39.93;101089.62;1462088;97;21102;-55
2022/09/19 02:24:13;;;;;;;1.62;0.40;;;;;;;18.24;40.02;101085.34;1434645;97;21177;-57
2022/09/19 02:26:39;;;;;;;1.92;0.60;;;;;;;18.22;39.91;101087.66;1486201;95;21157;-56
2022/09/19 02:29:08;;;;;;;1.82;0.40;;;;;;;18.21;39.91;101093.88;1492662;95;21110;-53
2022/09/19 02:31:37;;;;;;;0.60;0.40;;;;;;;18.19;39.86;101093.09;1467847;97;21158;-53
2022/09/19 02:34:06;;;;;;;0.53;0.40;;;;;;;18.17;39.77;101097.58;1482802;96;21156;-53
2022/09/19 02:36:47;;;;;;;1.35;0.37;;;;;;;18.14;39.86;101097.71;1482814;96;21060;-55
2022/09/19 02:39:32;;;;;;;0.77;0.50;;;;;;;18.12;39.78;101099.56;1496382;95;21747;-53
2022/09/19 02:42:18;;;;;;;1.42;0.85;;;;;;;18.10;39.86;101101.41;1513670;91;21139;-53
2022/09/19 02:44:57;;;;;;;0.75;0.40;;;;;;;18.06;39.98;101107.30;1519197;94;21152;-60
2022/09/19 02:47:30;;;;;;;1.30;0.60;;;;;;;18.03;40.03;101113.18;1530747;93;21622;-57
2022/09/19 02:50:20;;;;;;;0.28;0.28;;;;;;;18.00;40.02;101112.85;1530551;93;21050;-53
2022/09/19 02:52:47;;;;;;;0.40;0.40;;;;;;;17.98;40.01;101110.75;1530702;93;21622;-52
2022/09/19 02:55:23;;;;;;;1.30;0.47;;;;;;;17.95;39.98;101115.32;1533498;92;21125;-53
2022/09/19 02:57:53;;;;;;;0.40;0.33;;;;;;;17.93;40.05;101123.75;1443561;99;21127;-57
2022/09/19 03:00:21;;;;;;;1.07;0.55;;;;;;;17.89;40.00;101119.92;1425968;100;21704;-56
2022/09/19 03:02:56;;;;;;;1.27;0.45;;;;;;;17.85;40.11;101115.73;1435619;99;21583;-58
2022/09/19 03:05:27;;;;;;;0.40;0.40;;;;;;;17.83;40.14;101118.89;1424162;100;21569;-54
2022/09/19 03:08:04;;;;;;;0.60;0.40;;;;;;;17.81;40.11;101123.38;1440422;99;21152;-55
2022/09/19 03:10:40;;;;;;;1.00;0.47;;;;;;;17.78;40.14;101130.08;1367083;104;21695;-57
2022/09/19 03:13:11;;;;;;;0.93;0.50;;;;;;;17.77;40.15;101128.39;1346981;106;21214;-53
2022/09/19 03:15:59;;;;;;;0.62;0.30;;;;;;;17.75;40.03;101142.53;1342078;106;21179;-55
2022/09/19 03:18:28;;;;;;;0.30;0.30;;;;;;;17.73;40.05;101147.02;1372467;104;21253;-53
2022/09/19 03:21:05;;;;;;;0.42;0.30;;;;;;;17.69;40.08;101140.18;1376557;104;21623;-59
2022/09/19 03:23:44;;;;;;;0.30;0.30;;;;;;;17.66;40.21;101142.97;1381141;103;21179;-54
2022/09/19 03:26:14;;;;;;;0.60;0.40;;;;;;;17.63;40.18;101147.90;1328506;107;22368;-55
2022/09/19 03:28:41;;;;;;;0.60;0.37;;;;;;;17.60;40.24;101155.91;1317075;107;21193;-61
2022/09/19 03:31:08;;;;;;;1.47;0.60;;;;;;;17.57;40.31;101156.06;1327593;107;21637;-55
2022/09/19 03:33:36;;;;;;;1.27;0.53;;;;;;;17.55;40.45;101153.97;1326526;106;21221;-55
2022/09/19 03:36:07;;;;;;;0.95;0.40;;;;;;;17.53;40.60;101151.86;1327580;107;21146;-53
2022/09/19 03:41:07;;;;;;;1.35;0.53;;;;;;;17.49;40.75;101154.23;1327045;108;21191;-55
2022/09/19 03:43:35;;;;;;;1.27;0.50;;;;;;;17.48;40.88;101154.24;1327077;108;21711;-54
2022/09/19 03:46:02;;;;;;;1.45;0.42;;;;;;;17.47;40.75;101158.68;1319779;108;21180;-56
2022/09/19 03:48:32;;;;;;;0.68;0.40;;;;;;;17.46;40.75;101163.53;1308544;109;21202;-52
2022/09/19 03:51:00;;;;;;;0.68;0.40;;;;;;;17.45;40.74;101167.09;1326995;108;21172;-54
2022/09/19 03:53:27;;;;;;;0.75;0.30;;;;;;;17.45;40.78;101168.41;1327116;108;21164;-56
2022/09/19 03:55:55;;;;;;;1.22;0.60;;;;;;;17.44;40.82;101166.69;1382862;104;21150;-51
2022/09/19 03:58:22;;;;;;;0.50;0.40;;;;;;;17.44;40.85;101162.74;1383271;104;21104;-55
2022/09/19 04:00:50;;;;;;;1.25;0.40;;;;;;;17.44;40.78;101171.95;1382541;104;21145;-53
2022/09/19 04:03:18;;;;;;;0.37;0.20;;;;;;;17.43;40.88;101178.60;1383119;104;21159;-51
2022/09/19 04:05:45;;;;;;;0.65;0.45;;;;;;;17.43;40.85;101186.04;1383184;104;21096;-55
2022/09/19 04:08:13;;;;;;;0.98;0.40;;;;;;;17.42;40.80;101183.45;1432475;99;21100;-53
2022/09/19 04:10:42;;;;;;;1.45;0.50;;;;;;;17.42;40.74;101189.58;1451190;98;21140;-50
2022/09/19 04:13:10;;;;;;;1.25;0.33;;;;;;;17.42;40.73;101189.58;1455272;98;21091;-55
2022/09/19 04:15:38;;;;;;;0.88;0.40;;;;;;;17.41;40.74;101191.83;1457735;98;21820;-55
2022/09/19 04:18:06;;;;;;;0.78;0.40;;;;;;;17.40;40.78;101187.47;1453089;96;21155;-53
2022/09/19 04:20:33;;;;;;;1.57;0.50;;;;;;;17.40;40.82;101191.42;1454736;97;21825;-54
2022/09/19 04:23:05;;;;;;;1.32;0.40;;;;;;;17.40;40.85;101191.42;1470695;96;21133;-58
2022/09/19 04:25:50;;;;;;;0.85;0.42;;;;;;;17.40;40.84;101200.63;1466585;98;21129;-55
2022/09/19 04:28:23;;;;;;;1.30;0.33;;;;;;;17.40;40.83;101201.94;1470204;96;21639;-55
2022/09/19 04:30:50;;;;;;;0.60;0.50;;;;;;;17.40;40.83;101212.46;1523848;93;21116;-52
2022/09/19 04:33:18;;;;;;;1.42;0.40;;;;;;;17.40;40.75;101213.78;1507779;95;21102;-55
2022/09/19 04:35:45;;;;;;;0.82;0.40;;;;;;;17.39;40.82;101216.03;1523620;93;21145;-53
2022/09/19 04:38:17;;;;;;;3.70;1.25;;;;;;;17.38;40.88;101218.25;1536376;93;21169;-55
2022/09/19 04:40:47;;;;;;;3.58;1.70;;;;;;;17.38;40.86;101218.25;1545117;92;21171;-53
2022/09/19 04:43:18;;;;;;;4.30;2.50;;;;;;;17.39;40.94;101221.30;1549845;92;21640;-51
2022/09/19 04:45:48;;;;;;;5.85;3.37;;;;;;;17.41;40.97;101228.66;1554476;92;21119;-55
2022/09/19 04:48:20;;;;;;;4.65;3.00;;;;;;;17.43;41.08;101231.22;1549831;92;21104;-55
2022/09/19 04:50:53;;;;;;;3.15;1.80;;;;;;;17.45;41.07;101239.45;1553536;92;21746;-56
2022/09/19 04:53:23;;;;;;;4.90;1.42;;;;;;;17.49;40.99;101247.64;1556050;92;21020;-55
2022/09/19 04:55:52;;;;;;;0.95;0.60;;;;;;;17.54;40.92;101252.23;1547604;92;21136;-53
2022/09/19 04:58:20;;;;;;;0.53;0.50;;;;;;;17.56;40.78;101243.81;1547462;92;21064;-57
2022/09/19 05:00:52;;;;;;;1.30;0.50;;;;;;;17.60;40.72;101245.38;1548647;92;21132;-55
2022/09/19 05:03:20;;;;;;;1.15;0.65;;;;;;;17.62;40.62;101243.55;1550229;92;21089;-54
2022/09/19 05:05:51;;;;;;;0.85;0.50;;;;;;;17.64;40.63;101243.02;1549660;92;21060;-58
2022/09/19 05:08:25;;;;;;;3.25;1.65;;;;;;;17.66;40.61;101237.22;1549401;92;21127;-56
2022/09/19 05:10:58;;;;;;;0.40;0.40;;;;;;;17.69;40.64;101243.69;1550241;92;21121;-53
2022/09/19 05:13:30;;;;;;;3.67;1.07;;;;;;;17.73;40.77;101242.63;1530612;93;21070;-57
2022/09/19 05:15:59;;;;;;;;;;;;;;;17.76;40.77;101237.22;1538532;93;21070;-53
2022/09/19 05:18:35;;;;;;;0.62;0.30;;;;;;;17.79;40.51;101247.63;1528760;93;20113;-55
2022/09/19 05:21:07;;;;;;;2.42;0.47;;;;;;;17.79;40.50;101248.95;1588725;89;21074;-57
2022/09/19 05:23:40;;;;;;;1.02;0.40;;;;;;;17.81;40.62;101252.36;1635768;86;21208;-52
2022/09/19 05:26:10;;;;;;;0.62;0.42;;;;;;;17.84;40.53;101253.56;1627775;87;21114;-60
2022/09/19 05:28:37;;;;;;;1.80;0.40;;;;;;;17.89;40.62;101258.59;1631400;87;21041;-54
2022/09/19 05:31:05;;;;;;;1.67;0.30;;;;;;;17.93;40.60;101265.44;1631496;86;21483;-53
2022/09/19 05:33:34;;;;;;;1.02;0.30;;;;;;;17.96;40.30;101267.09;1630453;86;21038;-55
2022/09/19 05:36:03;;;;;;;1.25;0.30;;;;;;;17.98;40.42;101267.42;1629309;86;21058;-54
2022/09/19 05:38:36;;;;;;;6.80;2.10;;;;;;;18.00;40.32;101269.98;1627237;86;21022;-60
2022/09/19 05:41:19;;;;;;;1.27;0.50;;;;;;;18.03;40.08;101266.77;1600350;88;21651;-55
2022/09/19 05:43:52;;;;;;;2.58;1.20;;;;;;;18.07;40.23;101267.48;1600914;88;21067;-54
2022/09/19 05:46:20;;;;;;;2.22;0.62;;;;;;;18.12;40.28;101268.12;1600748;88;21086;-56
2022/09/19 05:48:49;;;;;;;0.50;0.45;;;;;;;18.17;40.47;101275.37;1601027;88;21082;-54
2022/09/19 05:51:16;;;;;;;3.90;0.50;;;;;;;18.26;40.40;101282.38;1600684;88;21069;-52
2022/09/19 05:53:53;;;;;;;0.82;0.57;;;;;;;18.38;40.25;101283.63;1600412;88;21078;-51
2022/09/19 05:56:31;;;;;;;2.45;0.50;;;;;;;18.48;39.72;101287.59;1513222;94;21101;-55
2022/09/19 05:58:59;;;;;;;0.57;0.40;;;;;;;18.57;39.56;101287.14;1504392;95;21136;-57
2022/09/19 06:01:27;;;;;;;1.55;0.30;;;;;;;18.63;39.62;101285.54;1511779;94;21136;-55
2022/09/19 06:03:54;;;;;;;1.12;0.30;;;;;;;18.69;39.37;101299.78;1488731;96;21136;-51
2022/09/19 06:06:22;;;;;;;2.67;0.50;;;;;;;18.71;39.33;101297.93;1510893;94;21124;-53
2022/09/19 06:08:59;;;;;;;1.60;0.50;;;;;;;18.76;39.33;101299.01;1510217;94;21193;-54
2022/09/19 06:11:28;;;;;;;0.53;0.30;;;;;;;18.82;39.25;101292.98;1485252;96;21122;-54
2022/09/19 06:16:41;;;;;;;2.17;0.40;;;;;;;18.99;38.77;101312.83;1517313;93;21011;-54
2022/09/19 06:19:26;;;;;;;0.78;0.40;;;;;;;19.07;38.28;101317.28;1526860;93;21083;-53
2022/09/19 06:21:57;;;;;;;0.60;0.40;;;;;;;19.14;38.41;101314.75;1533184;93;21607;-55
2022/09/19 06:24:26;;;;;;;0.30;0.30;;;;;;;19.22;38.31;101313.91;1536440;93;21051;-51
2022/09/19 06:26:53;;;;;;;0.45;0.30;;;;;;;19.29;38.20;101310.02;1536518;93;21074;-52
2022/09/19 06:29:22;;;;;;;1.62;0.40;;;;;;;19.37;37.90;101309.22;1536674;93;21039;-51
2022/09/19 06:31:50;;;;;;;0.60;0.40;;;;;;;19.46;37.71;101310.09;1533823;93;21043;-59
2022/09/19 06:34:18;;;;;;;0.88;0.40;;;;;;;19.55;37.53;101311.43;1588765;89;21098;-53
2022/09/19 06:36:45;;;;;;;2.35;0.70;;;;;;;19.63;37.52;101313.67;1593377;90;21047;-53
2022/09/19 06:39:11;;;;;;;1.05;0.82;;;;;;;19.72;37.71;101305.30;1593461;90;21066;-53
2022/09/19 06:41:55;;;;;;;1.60;0.98;;;;;;;19.82;37.29;101315.78;1511612;94;21080;-56
2022/09/19 06:44:33;;;;;;;1.90;1.00;;;;;;;19.93;37.06;101320.89;1472253;97;21084;-55
2022/09/19 06:47:06;;;;;;;1.47;0.50;;;;;;;20.05;36.40;101333.95;1465266;97;21084;-53
2022/09/19 06:49:43;;;;;;;1.15;0.65;;;;;;;20.15;35.99;101336.51;1407005;101;21153;-56
2022/09/19 06:52:29;;;;;;;1.42;1.15;;;;;;;20.27;35.91;101337.22;1389272;102;21186;-53
2022/09/19 06:54:58;;;;;;;1.80;0.98;;;;;;;20.46;35.61;101337.96;1411298;101;21710;-53
2022/09/19 06:57:26;;;;;;;1.87;0.72;;;;;;;20.68;35.08;101335.86;1391747;102;21161;-53
2022/09/19 06:59:52;;;;;;;0.50;0.50;;;;;;;20.91;34.84;101342.55;1411054;101;21133;-54
2022/09/19 07:02:20;;;;;;;1.20;0.65;;;;;;;21.05;34.32;101332.94;1421019;100;21093;-55
2022/09/19 07:04:48;;;;;;;0.95;0.60;;;;;;;21.16;34.37;101328.83;1447399;98;21596;-58
2022/09/19 07:07:17;;;;;;;2.27;1.12;;;;;;;21.27;34.23;101329.09;1451515;97;21142;-53
2022/09/19 07:09:49;;;;;;;1.75;0.50;;;;;;;21.41;33.32;101342.39;1450968;97;21104;-54
2022/09/19 07:12:16;;;;;;;3.75;0.50;;;;;;;21.49;32.77;101347.63;1481994;96;21125;-57
2022/09/19 07:14:44;;;;;;;1.27;0.40;;;;;;;21.58;32.73;101350.20;1428674;100;21119;-53
2022/09/19 07:17:15;;;;;;;1.07;0.50;;;;;;;21.67;32.67;101348.34;1491375;94;21564;-55
2022/09/19 07:19:40;;;;;;;1.00;0.50;;;;;;;21.79;32.22;101355.58;1482530;95;21165;-56
2022/09/19 07:22:25;;;;;;;0.53;0.30;;;;;;;21.89;32.04;101351.47;1589131;88;21222;-54
2022/09/19 07:24:56;;;;;;;1.05;0.45;;;;;;;21.99;31.79;101352.63;1576125;89;21065;-53
2022/09/19 07:27:28;;;;;;;0.68;0.30;;;;;;;22.09;31.38;101351.13;1565783;89;21487;-57
2022/09/19 07:29:54;;;;;;;0.50;0.28;;;;;;;22.12;30.79;101349.64;1544521;91;22398;-54
2022/09/19 07:32:21;;;;;;;0.30;0.23;;;;;;;22.13;30.27;101351.83;1579341;91;21077;-55
2022/09/19 07:34:47;;;;;;;0.42;0.20;;;;;;;22.13;30.70;101357.98;1544362;91;21082;-55
2022/09/19 07:37:15;;;;;;;0.85;0.30;;;;;;;22.15;30.52;101361.86;1579269;89;21134;-59
2022/09/19 07:39:43;;;;;;;0.47;0.30;;;;;;;22.15;30.55;101356.09;1544355;91;21098;-56
2022/09/19 07:42:21;;;;;;;0.40;0.40;;;;;;;22.15;30.52;101361.40;1496707;96;21132;-53
2022/09/19 07:44:50;;;;;;;0.20;0.20;;;;;;;22.16;30.39;101363.09;1503366;92;21102;-56
2022/09/19 07:47:32;;;;;;;1.32;0.33;;;;;;;22.16;30.18;101368.85;1539120;93;21091;-55
2022/09/19 07:50:19;;;;;;;0.80;0.20;;;;;;;22.18;30.38;101365.64;1538829;93;21133;-55
2022/09/19 07:53:05;;;;;;;0.95;0.30;;;;;;;22.20;30.50;101364.61;1539909;93;21066;-57
2022/09/19 07:55:35;;;;;;;0.53;0.50;;;;;;;22.22;30.22;101360.53;1541961;93;21146;-56
2022/09/19 07:58:03;;;;;;;0.30;0.30;;;;;;;22.23;30.39;101357.81;1541841;93;21600;-53
2022/09/19 08:00:40;;;;;;;2.72;0.20;;;;;;;22.23;29.91;101356.48;1538748;93;21633;-54
2022/09/19 08:03:12;;;;;;;0.45;0.30;;;;;;;22.23;29.82;101357.81;1541753;93;21550;-54
2022/09/19 08:05:43;;;;;;;0.65;0.30;;;;;;;22.22;29.91;101360.06;1541875;93;21086;-54
2022/09/19 08:08:12;;;;;;;1.45;0.20;;;;;;;22.25;30.35;101351.08;1541922;93;21107;-55
2022/09/19 08:10:39;;;;;;;0.20;0.20;;;;;;;22.29;30.22;101349.95;1541644;93;21101;-56
2022/09/19 08:13:08;;;;;;;0.57;0.20;;;;;;;22.33;29.94;101349.67;1542153;93;21087;-54
2022/09/19 08:15:36;;;;;;;0.20;0.20;;;;;;;22.36;29.67;101349.97;1541867;93;21082;-53
2022/09/19 08:18:09;;;;;;;0.45;0.45;;;;;;;22.41;29.42;101344.75;1547411;89;21086;-54
2022/09/19 08:20:37;;;;;;;0.30;0.30;;;;;;;22.46;29.32;101350.61;1550311;91;21110;-53
2022/09/19 08:23:09;;;;;;;0.68;0.20;;;;;;;22.51;29.45;101344.56;1536549;92;21667;-60
2022/09/19 08:25:38;;;;;;;0.20;0.20;;;;;;;22.57;28.93;101344.64;1472481;97;21149;-58
2022/09/19 08:28:05;;;;;;;0.30;0.23;;;;;;;22.62;28.70;101337.30;1465971;96;21082;-54
2022/09/19 08:33:03;;;;;;;0.40;0.30;;;;;;;22.75;28.75;101333.41;1431722;99;21141;-54
2022/09/19 08:35:31;;;;;;;0.15;0.13;;;;;;;22.78;28.89;101332.73;1453818;97;21164;-56
2022/09/19 08:38:00;;;;;;;0.65;0.20;;;;;;;22.84;28.50;101322.20;1452710;97;21086;-55
2022/09/19 08:40:33;;;;;;;0.35;0.30;;;;;;;22.91;28.60;101330.16;1453283;97;21094;-56
2022/09/19 08:43:36;;;;;;;0.40;0.20;;;;;;;22.97;28.39;101327.11;1454038;99;21674;-54
2022/09/19 08:46:16;;;;;;;0.30;0.30;;;;;;;23.03;27.93;101318.75;1452778;99;21086;-53
2022/09/19 08:49:00;;;;;;;0.98;0.50;;;;;;;23.09;27.59;101313.05;1453663;99;21111;-56
2022/09/19 08:51:56;;;;;;;0.68;0.25;;;;;;;23.13;28.03;101317.20;1453732;97;21111;-53
2022/09/19 08:54:43;;;;;;;0.72;0.47;;;;;;;23.17;28.09;101313.39;1477898;97;21665;-55
2022/09/19 08:57:31;;;;;;;0.50;0.30;;;;;;;23.24;28.19;101330.64;1462692;97;21168;-53
2022/09/19 09:00:16;;;;;;;0.40;0.30;;;;;;;23.29;28.62;101329.85;1460358;98;21635;-56
2022/09/19 09:02:53;;;;;;;0.20;0.20;;;;;;;;;;1493370;95;21116;-56
2022/09/19 09:06:00;;;;;;;0.45;0.20;;;;;;;23.41;28.79;101333.09;1476348;97;21112;-57
2022/09/19 09:08:43;;;;;;;0.75;0.30;;;;;;;23.45;28.65;101329.28;1462708;98;21129;-56
2022/09/19 09:11:57;;;;;;;0.20;0.20;;;;;;;23.50;28.71;101331.61;1483840;96;21669;-54
2022/09/19 09:14:52;;;;;;;0.82;0.20;;;;;;;23.53;28.90;101332.75;1483251;97;21127;-54
2022/09/19 09:17:34;;;;;;;0.30;0.10;;;;;;;23.54;28.63;101324.67;1503472;94;21147;-58
2022/09/19 09:20:31;;;;;;;0.33;0.20;;;;;;;23.56;28.99;101329.41;1530746;94;21105;-54
2022/09/19 09:23:19;;;;;;;1.55;0.23;;;;;;;23.58;28.74;101322.18;1497323;95;21643;-56
2022/09/19 09:25:50;;;;;;;0.30;0.20;;;;;;;23.62;28.98;101326.33;1475555;96;21632;-56
2022/09/19 09:28:26;;;;;;;0.20;0.20;;;;;;;23.67;28.80;101326.89;1473175;96;21119;-54
2022/09/19 09:31:25;;;;;;;2.60;0.30;;;;;;;23.70;28.85;101319.20;1519571;92;21149;-53
2022/09/19 09:33:53;;;;;;;0.40;0.20;;;;;;;23.74;28.27;101314.87;1511231;94;21146;-54
2022/09/19 09:36:23;;;;;;;0.42;0.20;;;;;;;23.78;28.21;101308.41;1511477;94;21601;-56
2022/09/19 09:39:02;;;;;;;0.50;0.28;;;;;;;23.82;28.41;101311.72;1481330;96;21107;-56
2022/09/19 09:41:49;;;;;;;0.50;0.25;;;;;;;23.86;28.05;101312.75;1518922;92;21565;-56
2022/09/19 09:44:30;;;;;;;1.27;0.42;;;;;;;23.89;28.13;101311.19;1543257;93;21108;-58
2022/09/19 09:47:24;;;;;;;0.23;0.20;;;;;;;23.92;28.45;101322.10;1523575;93;21142;-54
2022/09/19 09:49:55;;;;;;;1.17;0.20;;;;;;;23.97;28.56;101322.15;1452113;98;21159;-54
2022/09/19 09:52:45;;;;;;;1.05;0.20;;;;;;;24.01;28.82;101323.64;1455487;97;21102;-54
2022/09/19 09:58:55;;;;;;;0.88;0.40;;;;;;;24.09;28.91;101329.31;1460488;96;21130;-56
2022/09/19 10:04:47;;;;;;;0.47;0.30;;;;;;;24.16;28.90;101329.28;1472817;96;21080;-56
2022/09/19 10:07:30;;;;;;;4.22;0.45;;;;;;;24.19;28.72;101333.04;1441966;98;21106;-57
2022/09/19 10:10:02;;;;;;;0.33;0.23;;;;;;;24.21;28.55;101335.11;1409489;100;21165;-56
2022/09/19 10:12:35;;;;;;;0.42;0.25;;;;;;;24.22;28.94;101330.19;1416163;100;21683;-55
2022/09/19 10:15:03;;;;;;;;;;;;;;;24.24;29.00;101328.27;1370276;104;21686;-52
2022/09/19 10:17:42;;;;;;;1.65;0.30;;;;;;;24.23;28.78;101321.23;1369182;103;20160;-56
2022/09/19 10:20:18;;;;;;;0.30;0.20;;;;;;;24.24;29.12;101324.28;1361294;103;21208;-56
2022/09/19 10:22:46;;;;;;;0.30;0.30;;;;;;;24.24;29.30;101329.59;1395062;100;21223;-56
2022/09/19 10:25:15;;;;;;;0.62;0.30;;;;;;;24.25;29.62;101329.95;1406457;101;21105;-54
2022/09/19 10:27:45;;;;;;;0.20;0.20;;;;;;;24.28;29.57;101336.05;1416267;100;21202;-55
2022/09/19 10:30:19;;;;;;;0.30;0.30;;;;;;;24.28;29.54;101332.88;1397484;102;21159;-56
2022/09/19 10:32:47;;;;;;;0.75;0.30;;;;;;;24.30;29.08;101329.64;1398363;102;21137;-57
2022/09/19 10:35:36;;;;;;;0.20;0.20;;;;;;;24.30;29.70;101328.81;1398269;102;21248;-55
2022/09/19 10:38:17;;;;;;;0.95;0.30;;;;;;;24.30;29.64;101332.80;1405359;100;21115;-56
2022/09/19 10:40:57;;;;;;;0.53;0.30;;;;;;;24.33;30.01;101338.75;1424642;99;21158;-53
2022/09/19 10:43:46;;;;;;;1.77;0.40;;;;;;;24.36;29.54;101341.68;1439190;96;21157;-55
2022/09/19 10:46:36;;;;;;;1.07;0.20;;;;;;;24.37;29.79;101336.25;1481236;96;21141;-53
2022/09/19 10:49:26;;;;;;;0.85;0.30;;;;;;;24.40;29.70;101332.53;1481081;96;21100;-58
2022/09/19 10:51:56;;;;;;;0.23;0.15;;;;;;;24.43;29.12;101329.64;1481244;96;21097;-53
2022/09/19 10:54:36;;;;;;;1.50;0.30;;;;;;;24.44;29.26;101316.72;1481078;96;21183;-59
2022/09/19 10:57:07;;;;;;;0.90;0.23;;;;;;;24.47;29.31;101317.81;1478943;95;21192;-54
2022/09/19 10:59:37;;;;;;;0.33;0.10;;;;;;;24.49;28.73;101312.77;1433973;99;21196;-56
2022/09/19 11:02:24;;;;;;;0.50;0.30;;;;;;;24.53;28.72;101313.39;1424698;100;21623;-56
2022/09/19 11:04:59;;;;;;;0.42;0.28;;;;;;;24.56;28.95;101310.06;1428686;98;21159;-54
2022/09/19 11:07:28;;;;;;;0.35;0.20;;;;;;;24.59;29.25;101319.61;1460303;98;21578;-55
2022/09/19 11:09:59;;;;;;;0.35;0.20;;;;;;;24.61;28.66;101317.69;1460722;98;21121;-54
2022/09/19 11:12:22;;;;;;;0.37;0.20;;;;;;;24.62;28.31;101316.75;1460855;97;21062;-54
2022/09/19 11:14:50;;;;;;;0.57;0.30;;;;;;;24.64;28.73;101306.84;1459213;98;21138;-56
2022/09/19 11:17:56;;;;;;;0.53;0.20;;;;;;;24.65;29.27;101299.21;1464429;95;21194;-57
2022/09/19 11:20:39;;;;;;;3.20;0.20;;;;;;;24.64;29.18;101297.05;1372361;103;21100;-54
2022/09/19 11:23:36;;;;;;;1.37;0.20;;;;;;;24.66;27.91;101292.95;1371731;103;21161;-57
2022/09/19 11:26:28;;;;;;;0.20;0.20;;;;;;;24.65;27.97;101293.89;1388360;101;21199;-54
2022/09/19 11:29:27;;;;;;;2.27;0.30;;;;;;;24.61;27.96;101295.07;1386916;102;21155;-54
2022/09/19 11:32:03;;;;;;;1.72;0.30;;;;;;;24.55;28.17;101296.37;1363200;104;21174;-57
2022/09/19 11:34:49;;;;;;;0.60;0.30;;;;;;;24.49;28.68;101290.16;1387222;102;21095;-54
2022/09/19 11:37:41;;;;;;;0.47;0.30;;;;;;;24.44;29.08;101286.12;1387012;102;21665;-60
2022/09/19 11:40:24;;;;;;;0.88;0.30;;;;;;;24.39;28.83;101289.58;1363350;104;21216;-54
2022/09/19 11:43:14;;;;;;;2.92;0.30;;;;;;;24.34;28.74;101285.08;1365203;104;21623;-56
2022/09/19 11:46:08;;;;;;;0.57;0.30;;;;;;;24.29;28.76;101277.89;1341876;106;21623;-54
2022/09/19 11:49:03;;;;;;;1.75;0.45;;;;;;;24.23;28.61;101280.52;1345596;106;21722;-56
2022/09/19 11:51:38;;;;;;;1.30;0.45;;;;;;;24.18;28.98;101269.33;1343235;106;21140;-55
2022/09/19 11:54:29;;;;;;;3.27;0.78;;;;;;;24.13;29.40;101274.97;1345567;106;21100;-53
2022/09/19 11:57:19;;;;;;;1.75;0.30;;;;;;;24.08;29.50;101266.48;1339775;106;21173;-53
2022/09/19 12:00:16;;;;;;;3.83;0.40;;;;;;;24.03;29.28;101273.91;1337678;106;21620;-53
2022/09/19 12:02:59;;;;;;;0.82;0.40;;;;;;;23.96;29.32;101273.09;1315435;108;21218;-55
2022/09/19 12:05:53;;;;;;;1.95;0.37;;;;;;;23.91;29.64;101273.39;1310199;109;21167;-53
2022/09/19 12:08:35;;;;;;;0.90;0.30;;;;;;;23.89;29.98;101275.31;1323945;108;21146;-56
2022/09/19 12:11:22;;;;;;;0.25;0.20;;;;;;;23.88;30.38;101276.28;1321850;107;21174;-53
2022/09/19 12:13:53;;;;;;;1.57;0.42;;;;;;;23.88;30.76;101282.92;1299657;110;21238;-56
2022/09/19 12:16:28;;;;;;;1.25;0.33;;;;;;;23.89;30.52;101277.97;1325805;106;21655;-61
2022/09/19 12:19:24;;;;;;;0.55;0.30;;;;;;;23.90;30.80;101282.34;1334694;106;21152;-62
2022/09/19 12:21:55;;;;;;;0.30;0.30;;;;;;;23.90;30.54;101277.03;1341694;103;21647;-60
2022/09/19 12:27:42;;;;;;;0.93;0.40;;;;;;;23.96;31.33;101275.27;1401901;101;21161;-53
2022/09/19 12:30:14;;;;;;;1.35;0.40;;;;;;;24.00;31.24;101276.77;1420942;100;21113;-59